Time;durP1;ratioP1;P1;durP2;ratioP2;P2;SDS_P1;SDS_P2;PMS_P1;PMS_P2;Temp;Humidity;BMP_temperature;BMP_pressure;BME280_temperature;BME280_humidity;BME280_pressure;Samples;Min_cycle;Max_cycle;Signal;HPM_P1;HPM_P2
2023/01/07 09:13:56;;;;;;;18.73;13.63;;;;;;;6.94;100.00;96360.13;4881290;29;20097;-96
2023/01/07 09:17:25;;;;;;;18.87;13.47;;;;;;;7.01;100.00;96356.06;4870920;29;20515;-94
2023/01/07 09:20:21;;;;;;;18.67;14.27;;;;;;;7.04;100.00;96355.75;4891195;29;20176;-96
2023/01/07 09:22:57;;;;;;;17.30;13.10;;;;;;;7.06;100.00;96354.66;4883723;29;20154;-94
2023/01/07 09:25:30;;;;;;;17.17;12.33;;;;;;;7.15;100.00;96354.84;4854429;29;20048;-92
2023/01/07 09:36:06;;;;;;;18.37;12.90;;;;;;;7.40;100.00;96354.31;4847396;29;20046;-92
2023/01/07 09:39:25;;;;;;;17.30;11.53;;;;;;;7.40;100.00;96341.22;4846631;29;20048;-92
2023/01/07 09:47:10;;;;;;;9.63;6.13;;;;;;;7.35;100.00;96317.28;4888620;29;20103;-93
2023/01/07 09:50:57;;;;;;;8.63;5.77;;;;;;;7.40;100.00;96309.00;4857582;29;20086;-94
2023/01/07 09:54:29;;;;;;;10.90;6.70;;;;;;;7.45;100.00;96298.97;4846554;29;20062;-93
2023/01/07 10:53:49;;;;;;;9.87;6.20;;;;;;;9.39;100.00;96230.81;4930253;29;20197;-96
2023/01/07 10:56:20;;;;;;;10.00;6.30;;;;;;;8.88;100.00;96226.22;4911574;29;20121;-90
2023/01/07 10:58:50;;;;;;;11.90;7.63;;;;;;;9.10;100.00;96222.34;4912745;29;20070;-90
2023/01/07 11:01:28;;;;;;;13.43;8.97;;;;;;;9.55;100.00;96208.25;4913238;29;20494;-90
2023/01/07 11:03:58;;;;;;;11.33;8.07;;;;;;;10.23;100.00;96205.72;4915052;29;20039;-90
2023/01/07 11:07:02;;;;;;;8.67;6.13;;;;;;;10.91;100.00;96193.44;4925144;29;20047;-90
2023/01/07 11:09:40;;;;;;;7.15;4.50;;;;;;;10.42;100.00;96188.88;4915590;29;20047;-91
2023/01/07 11:12:42;;;;;;;5.63;3.60;;;;;;;10.74;100.00;96184.72;4901128;29;20123;-90
2023/01/07 11:15:17;;;;;;;5.77;3.60;;;;;;;10.69;100.00;96176.47;4895436;29;20031;-90
2023/01/07 11:18:06;;;;;;;7.70;4.27;;;;;;;10.55;100.00;96184.00;4899442;29;20050;-91
2023/01/07 11:20:42;;;;;;;7.30;4.20;;;;;;;11.35;100.00;96183.44;4922812;24;20045;-88
2023/01/07 11:26:21;;;;;;;6.60;4.17;;;;;;;10.85;100.00;96177.31;4879394;29;20076;-90
2023/01/07 18:04:25;;;;;;;11.73;8.20;;;;;;;4.63;100.00;95966.69;4924160;29;20048;-92
2023/01/07 18:06:51;;;;;;;11.63;8.10;;;;;;;4.61;100.00;95962.56;4895416;29;20512;-93
2023/01/07 18:09:21;;;;;;;11.40;8.73;;;;;;;4.53;100.00;95951.94;4911308;29;20035;-95
2023/01/07 18:15:29;;;;;;;13.63;9.00;;;;;;;4.49;100.00;95954.84;4907432;29;20035;-94
2023/01/07 18:17:55;;;;;;;13.73;9.03;;;;;;;4.56;100.00;95959.50;4887625;29;20047;-93
2023/01/07 18:20:21;;;;;;;13.53;9.27;;;;;;;4.51;100.00;95951.28;4894939;29;20031;-93
2023/01/07 18:22:57;;;;;;;13.13;8.87;;;;;;;4.53;100.00;95955.41;4890937;29;20040;-93
2023/01/07 18:25:30;;;;;;;14.40;9.03;;;;;;;4.53;100.00;95951.94;4899586;29;20123;-94
2023/01/07 18:27:56;;;;;;;13.67;7.93;;;;;;;4.47;100.00;95951.53;4909986;29;20055;-93
2023/01/07 18:30:22;;;;;;;12.80;8.87;;;;;;;4.39;100.00;95956.56;4898448;29;20071;-93
2023/01/07 18:32:52;;;;;;;16.73;10.03;;;;;;;4.40;100.00;95957.38;4894653;29;20043;-92
2023/01/07 18:35:21;;;;;;;14.80;8.93;;;;;;;4.42;100.00;95956.28;4884213;29;20035;-94
2023/01/07 18:37:50;;;;;;;12.93;8.50;;;;;;;4.37;100.00;95953.25;4887488;29;20037;-93
2023/01/07 18:40:20;;;;;;;14.77;9.77;;;;;;;4.41;100.00;95954.63;4891885;29;20028;-93
2023/01/07 18:42:48;;;;;;;15.93;10.50;;;;;;;4.38;100.00;95954.88;4882496;29;20032;-93
2023/01/07 18:45:14;;;;;;;18.93;12.20;;;;;;;4.37;100.00;95949.81;4888524;29;20028;-93
2023/01/07 18:47:41;;;;;;;17.80;10.93;;;;;;;4.37;100.00;95958.47;4898423;29;20048;-93
2023/01/07 18:50:15;;;;;;;17.30;10.73;;;;;;;4.29;100.00;95960.03;4898259;29;20024;-93
2023/01/07 18:52:55;;;;;;;12.83;8.83;;;;;;;4.23;100.00;95967.41;4891208;29;20123;-93
2023/01/07 18:55:21;;;;;;;14.90;9.30;;;;;;;4.17;100.00;95962.72;4913207;29;20058;-93
2023/01/07 18:57:56;;;;;;;14.00;9.30;;;;;;;4.18;100.00;95960.94;4895554;29;20043;-93
2023/01/07 19:00:34;;;;;;;12.77;8.60;;;;;;;4.01;100.00;95957.94;4885103;29;20040;-93
2023/01/07 19:03:00;;;;;;;13.97;9.10;;;;;;;3.92;100.00;95956.09;4876439;29;20524;-93
2023/01/07 19:05:27;;;;;;;13.43;8.93;;;;;;;3.95;100.00;95958.44;4895978;29;20087;-93
2023/01/07 19:07:54;;;;;;;14.67;9.77;;;;;;;4.03;100.00;95950.00;4886993;29;20074;-93
2023/01/07 19:10:31;;;;;;;14.33;9.93;;;;;;;3.98;100.00;95952.97;4889427;29;20050;-94
2023/01/07 19:13:00;;;;;;;13.47;9.07;;;;;;;4.07;100.00;95951.41;4908922;29;20060;-94
2023/01/07 19:15:32;;;;;;;19.43;10.53;;;;;;;4.07;100.00;95945.38;4889356;29;20076;-93
2023/01/07 19:18:15;;;;;;;12.77;9.30;;;;;;;4.12;100.00;95944.03;4897790;29;20075;-93
2023/01/07 19:20:41;;;;;;;15.18;9.93;;;;;;;4.07;100.00;95942.78;4915311;29;20032;-94
2023/01/07 19:23:07;;;;;;;12.10;8.70;;;;;;;4.08;100.00;95947.84;4912233;29;20081;-93
2023/01/07 19:25:34;;;;;;;14.17;9.17;;;;;;;4.14;100.00;95936.13;4895488;29;20097;-94
2023/01/07 19:28:00;;;;;;;12.03;8.87;;;;;;;4.10;100.00;95939.94;4894527;29;20043;-93
2023/01/07 19:30:29;;;;;;;13.50;8.73;;;;;;;4.13;100.00;95929.25;4887547;29;20039;-93
2023/01/07 19:33:02;;;;;;;12.50;8.10;;;;;;;4.10;100.00;95932.13;4890985;29;20040;-93
2023/01/07 19:35:27;;;;;;;11.93;8.27;;;;;;;4.10;100.00;95921.72;4898311;29;20024;-93
2023/01/07 19:37:53;;;;;;;11.90;8.40;;;;;;;4.09;100.00;95927.84;4902579;29;20036;-93
2023/01/07 19:40:19;;;;;;;13.60;8.70;;;;;;;4.04;100.00;95923.03;4910560;29;20107;-93
2023/01/07 19:42:46;;;;;;;12.73;8.53;;;;;;;4.00;100.00;95924.25;4902716;29;20044;-93
2023/01/07 19:45:14;;;;;;;12.23;8.23;;;;;;;3.96;100.00;95922.84;4897144;29;20036;-93
2023/01/07 19:47:49;;;;;;;13.50;9.03;;;;;;;3.92;100.00;95913.63;4882991;29;20128;-93
2023/01/07 19:50:16;;;;;;;16.20;10.00;;;;;;;3.81;100.00;95919.72;4880456;29;20483;-93
2023/01/07 19:52:42;;;;;;;14.60;10.10;;;;;;;3.72;100.00;95928.25;4885974;29;20079;-93
2023/01/07 19:55:08;;;;;;;16.50;10.67;;;;;;;3.71;100.00;95922.22;4906678;29;20040;-92
2023/01/07 19:57:44;;;;;;;14.67;10.50;;;;;;;3.59;100.00;95920.66;4891207;29;20040;-95
2023/01/07 20:00:10;;;;;;;14.30;10.40;;;;;;;3.54;100.00;95926.19;4897769;29;20036;-92
2023/01/07 20:02:36;;;;;;;16.40;11.23;;;;;;;3.53;100.00;95923.75;4901707;29;20047;-92
2023/01/07 20:05:02;;;;;;;17.60;12.00;;;;;;;3.51;100.00;95916.03;4891965;29;20032;-92
2023/01/07 20:07:32;;;;;;;15.03;10.47;;;;;;;3.52;100.00;95915.13;4894915;29;20016;-92
2023/01/07 20:10:00;;;;;;;20.67;13.37;;;;;;;3.56;100.00;95920.06;4890529;29;20044;-93
2023/01/07 20:12:26;;;;;;;20.17;12.40;;;;;;;3.52;100.00;95925.50;4892092;29;20131;-92
2023/01/07 20:14:53;;;;;;;17.97;12.40;;;;;;;3.52;100.00;95915.13;4900133;29;20127;-92
2023/01/07 20:17:18;;;;;;;17.57;11.50;;;;;;;3.56;100.00;95920.91;4899900;29;20458;-92
2023/01/07 20:19:56;;;;;;;17.10;11.07;;;;;;;3.59;100.00;95909.41;4889700;29;20040;-93
2023/01/07 20:22:21;;;;;;;15.60;10.63;;;;;;;3.73;100.00;95907.34;4898319;29;20068;-92
2023/01/07 20:24:51;;;;;;;13.67;10.07;;;;;;;3.86;100.00;95911.56;4911954;29;20047;-92
2023/01/07 20:27:17;;;;;;;15.23;9.63;;;;;;;3.99;100.00;95912.16;4887393;29;20040;-92
2023/01/07 20:29:44;;;;;;;14.37;8.83;;;;;;;4.20;100.00;95902.59;4892360;29;20079;-92
2023/01/07 20:32:09;;;;;;;16.53;9.87;;;;;;;4.36;100.00;95901.28;4904861;29;20028;-92
2023/01/07 20:34:35;;;;;;;17.23;10.27;;;;;;;4.39;100.00;95901.88;4897681;29;20450;-92
2023/01/07 20:37:01;;;;;;;14.67;8.37;;;;;;;4.41;100.00;95893.94;4889035;29;20135;-92
2023/01/07 20:39:28;;;;;;;13.00;8.60;;;;;;;4.40;100.00;95887.09;4907285;29;20076;-93
2023/01/07 20:41:54;;;;;;;13.27;8.70;;;;;;;4.39;100.00;95883.66;4897179;29;20032;-93
2023/01/07 20:44:28;;;;;;;12.90;8.37;;;;;;;4.40;100.00;95889.69;4897650;29;20025;-92
2023/01/07 20:46:55;;;;;;;12.67;7.87;;;;;;;4.30;100.00;95889.63;4906509;29;20037;-92
2023/01/07 20:49:22;;;;;;;12.90;8.47;;;;;;;4.30;100.00;95879.22;4903675;29;20055;-92
2023/01/07 20:51:47;;;;;;;14.30;9.00;;;;;;;4.38;100.00;95888.97;4893159;29;20064;-92
2023/01/07 20:54:41;;;;;;;13.17;8.47;;;;;;;4.30;100.00;95884.44;4917653;29;20036;-92
2023/01/07 20:57:07;;;;;;;10.75;7.00;;;;;;;4.25;100.00;95873.56;4920213;29;20084;-92
2023/01/07 20:59:58;;;;;;;14.33;8.63;;;;;;;4.25;100.00;95877.00;4896090;29;20121;-93
2023/01/07 21:02:26;;;;;;;15.83;9.57;;;;;;;4.21;100.00;95874.78;4895793;29;20033;-92
2023/01/07 21:04:57;;;;;;;15.83;10.80;;;;;;;4.18;100.00;95869.84;4889340;29;20036;-92
2023/01/07 21:07:23;;;;;;;18.63;12.40;;;;;;;4.07;100.00;95870.75;4890907;29;20032;-92
